Bookmark and Share
Track history (hours):
 

An Run Da 2

Last reported at 2014-Apr-20 23:28 UTC. Time now 2014-Apr-20 23:56 UTC.
Position N 32°00' E 120°33'.

Length 147 m; draft 8.5 m.

Type: Cargo ship. MMSI: 413360230.

NotesDate/timePositionNaut miles runAvg speedWind from/ knotsBaromVisibWave heightAir tempDewpointWater temp
2014-Apr-20 23:28N 32°00' E 120°33'0 0.0
2014-Apr-20 22:33N 32°00' E 120°33'0 0.0
2014-Apr-20 21:33N 32°00' E 120°33'0 0.0
2014-Apr-20 20:27N 32°00' E 120°33'0 0.0
2014-Apr-20 19:33N 32°00' E 120°33'0 0.0
2014-Apr-20 18:30N 32°00' E 120°33'0 0.0
2014-Apr-20 17:16N 32°00' E 120°33'0 0.0
2014-Apr-20 16:33N 32°00' E 120°33'0 0.0
2014-Apr-20 15:31N 32°00' E 120°33'0 0.0
2014-Apr-20 14:33N 32°00' E 120°33'1 1.5
2014-Apr-20 13:33N 32°00' E 120°35'8 7.6
2014-Apr-20 12:33N 32°01' E 120°44'15 7.5
2014-Apr-20 10:32N 31°49' E 120°55'320 6.3
2014-Apr-18 08:03N 36°56' E 122°45'2810.7
2014-Apr-18 05:23N 37°24' E 122°46'910.8
2014-Apr-18 04:32N 37°32' E 122°41'1110.0
2014-Apr-18 03:26N 37°39' E 122°30'11 8.8
2014-Apr-18 02:13N 37°46' E 122°19'6 8.4
2014-Apr-18 01:29N 37°50' E 122°13'  
2014-Apr-15 00:31N 37°49' E 122°22'4010.1
2014-Apr-14 20:31N 37°16' E 122°52'1211.6
2014-Apr-14 19:30N 37°05' E 122°53'1011.0
2014-Apr-14 18:34N 36°54' E 122°52'3010.0
2014-Apr-14 15:33N 36°24' E 122°51'10 9.8
2014-Apr-14 14:33N 36°14' E 122°51'303 8.0
2014-Apr-13 00:31N 31°16' E 121°45'9 9.8
2014-Apr-12 23:34N 31°22' E 121°36'1211.6
2014-Apr-12 22:33N 31°30' E 121°25'1310.8
2014-Apr-12 21:23N 31°38' E 121°15'1511.7
2014-Apr-12 20:08N 31°46' E 121°00'6 9.9
2014-Apr-12 19:31N 31°50' E 120°54'9 9.4
2014-Apr-12 18:31N 31°58' E 120°51'8 8.0
2014-Apr-12 17:33N 32°00' E 120°42'9 8.8
2014-Apr-12 16:33N 32°01' E 120°31'6 5.7
2014-Apr-12 15:33N 31°58' E 120°26'2 1.9
2014-Apr-12 14:28N 31°58' E 120°23'0 0.0
2014-Apr-12 13:20N 31°58' E 120°23'0 0.0
2014-Apr-12 12:29N 31°58' E 120°23'0 0.0
2014-Apr-12 11:18N 31°58' E 120°23'0 0.0
2014-Apr-12 10:24N 31°58' E 120°23'0 0.0
2014-Apr-12 09:30N 31°58' E 120°23'0 0.0
2014-Apr-12 08:24N 31°58' E 120°23'0 0.0
2014-Apr-12 07:21N 31°58' E 120°23'0 0.0
2014-Apr-12 06:32N 31°58' E 120°23'0 0.0
2014-Apr-12 05:29N 31°58' E 120°23'0 0.0
2014-Apr-12 04:29N 31°58' E 120°23'0 0.0
2014-Apr-12 03:32N 31°58' E 120°23'0 0.0
2014-Apr-12 02:28N 31°58' E 120°23'0 0.0
2014-Apr-12 01:31N 31°58' E 120°23'0 0.0
2014-Apr-12 00:32N 31°58' E 120°23'0 0.0
2014-Apr-11 23:23N 31°58' E 120°23'0 0.0
2014-Apr-11 22:32N 31°58' E 120°23'0 0.0
2014-Apr-11 21:28N 31°58' E 120°23'1 1.4
2014-Apr-11 20:33N 31°58' E 120°25'6 5.7
2014-Apr-11 19:33N 32°02' E 120°30'9 8.9
2014-Apr-11 18:33N 32°00' E 120°40'9 8.8
2014-Apr-11 17:33N 31°59' E 120°50'10 9.8
2014-Apr-11 16:30N 31°49' E 120°55'23 9.8
2014-Apr-11 14:10N 31°36' E 121°17'610.0
2014-Apr-11 13:33N 31°32' E 121°22'9 9.0
2014-Apr-11 12:34N 31°26' E 121°30'10 9.6
2014-Apr-11 11:32N 31°21' E 121°40'9 9.1
2014-Apr-11 10:30N 31°17' E 121°50'34 5.6
2014-Apr-11 04:28N 31°11' E 122°29'  

Dump ship's entire track history

sailing weather and tide predictions

An Run Da 2 — BHNX — position and weather